Terminal Aerodrome Forecast
Issued by NWS

Home | Current Version | Previous Version | Text Only | Print | Product List | Glossary On
Versions: 1 2 3 4 5 6 7 8 9 10 11 12
877
FTUS42 KTBW 302328 AAA
TAFPGD
TAF AMD
KPGD 302328Z 3023/0124 26004KT P6SM SCT070
     FM010200 08004KT P6SM BKN050
     FM010400 VRB03KT P6SM SCT040
     FM011700 08006KT P6SM BKN030 BKN060
     FM011800 09005KT P6SM VCTS BKN035CB=

USA.gov is the U.S. government's official web portal to all federal, state and local government web resources and services.